createdAt,value
2023-04-26T00:00:20.742Z,97417.88
2023-04-26T00:03:07.813Z,97417.88
2023-04-26T00:05:55.169Z,97420.78
2023-04-26T00:08:43.242Z,97420.94
2023-04-26T00:11:30.248Z,97431.25
2023-04-26T00:14:17.347Z,97435.41
2023-04-26T00:17:05.883Z,97434.84
2023-04-26T00:19:52.975Z,97433.94
2023-04-26T00:22:40.795Z,97434.56
2023-04-26T00:25:28.010Z,97434.16
2023-04-26T00:28:14.976Z,97438.34
2023-04-26T00:31:01.880Z,97436.94
2023-04-26T00:33:48.864Z,97440.75
2023-04-26T00:36:35.808Z,97440.75
2023-04-26T00:39:22.732Z,97438.41
2023-04-26T00:42:09.662Z,97441.25
2023-04-26T00:44:57.697Z,97443.69
2023-04-26T00:47:44.850Z,97446.25
2023-04-26T00:50:32.648Z,97438.75
2023-04-26T00:53:20.754Z,97443.28
2023-04-26T00:56:09.828Z,97432.28
2023-04-26T00:58:56.876Z,97435.00
2023-04-26T01:01:43.987Z,97431.91
2023-04-26T01:04:31.336Z,97430.63
2023-04-26T01:07:19.877Z,97434.03
2023-04-26T01:10:09.576Z,97428.97
2023-04-26T01:12:57.921Z,97427.75
2023-04-26T01:15:49.016Z,97430.25
2023-04-26T01:18:36.220Z,97431.22
2023-04-26T01:21:25.078Z,97430.63
2023-04-26T01:24:13.505Z,97428.66
2023-04-26T01:27:00.548Z,97429.22
2023-04-26T01:29:47.668Z,97436.09
2023-04-26T01:32:35.097Z,97433.38
2023-04-26T01:35:22.061Z,97439.16
2023-04-26T01:38:08.988Z,97427.59
2023-04-26T01:40:55.892Z,97441.19
2023-04-26T01:43:42.815Z,97441.03
2023-04-26T01:46:29.797Z,97443.22
2023-04-26T01:49:18.965Z,97443.94
2023-04-26T01:52:05.886Z,97445.56
2023-04-26T01:54:53.015Z,97449.34
2023-04-26T01:57:39.933Z,97446.44
2023-04-26T02:00:28.936Z,97454.06
2023-04-26T02:03:16.696Z,97455.16
2023-04-26T02:06:04.204Z,97452.63
2023-04-26T02:08:52.423Z,97453.16
2023-04-26T02:11:39.481Z,97457.69
2023-04-26T02:14:26.738Z,97464.47
2023-04-26T02:17:14.675Z,97458.69
2023-04-26T02:20:01.597Z,97472.47
2023-04-26T02:22:48.515Z,97455.84
2023-04-26T02:25:36.029Z,97455.84
2023-04-26T02:28:23.007Z,97462.16
2023-04-26T02:31:10.068Z,97455.84
2023-04-26T02:33:56.974Z,97462.53
2023-04-26T02:36:44.319Z,97460.56
2023-04-26T02:39:31.596Z,97458.97
2023-04-26T02:42:18.880Z,97457.09
2023-04-26T02:45:07.134Z,97456.75
2023-04-26T02:47:54.211Z,97463.28
2023-04-26T02:50:41.462Z,97453.53
2023-04-26T02:53:28.667Z,97459.84
2023-04-26T02:56:16.190Z,97459.88
2023-04-26T02:59:03.158Z,97454.78
2023-04-26T03:01:50.243Z,97463.47
2023-04-26T03:04:37.896Z,97458.38
2023-04-26T03:07:24.828Z,97455.28
2023-04-26T03:10:12.399Z,97448.16
2023-04-26T03:12:59.281Z,97463.50
2023-04-26T03:15:46.695Z,97463.16
2023-04-26T03:18:35.026Z,97465.88
2023-04-26T03:21:21.978Z,97463.59
2023-04-26T03:24:08.921Z,97469.69
2023-04-26T03:26:55.865Z,97484.53
2023-04-26T03:29:44.107Z,97473.28
2023-04-26T03:32:31.785Z,97474.00
2023-04-26T03:35:18.714Z,97475.28
2023-04-26T03:38:05.783Z,97475.78
2023-04-26T03:40:52.711Z,97482.88
2023-04-26T03:43:39.655Z,97481.94
2023-04-26T03:46:26.589Z,97480.50
2023-04-26T03:49:13.606Z,97483.88
2023-04-26T03:52:00.597Z,97486.78
2023-04-26T03:54:49.820Z,97495.44
2023-04-26T03:57:36.667Z,97500.31
2023-04-26T04:00:23.760Z,97499.38
2023-04-26T04:03:10.932Z,97496.72
2023-04-26T04:05:58.089Z,97498.69
2023-04-26T04:08:45.019Z,97503.91
2023-04-26T04:11:33.027Z,97503.91
2023-04-26T04:14:19.935Z,97498.31
2023-04-26T04:17:07.571Z,97501.63
2023-04-26T04:19:54.526Z,97499.91
2023-04-26T04:22:41.556Z,97504.25
2023-04-26T04:25:28.423Z,97499.63
2023-04-26T04:28:15.335Z,97496.72
2023-04-26T04:31:02.279Z,97504.41
2023-04-26T04:33:49.250Z,97516.19
2023-04-26T04:36:36.136Z,97515.66
2023-04-26T04:39:23.064Z,97514.28
2023-04-26T04:42:10.364Z,97517.66
2023-04-26T04:44:59.634Z,97525.69
2023-04-26T04:47:46.623Z,97526.44
2023-04-26T04:50:33.910Z,97522.31
2023-04-26T04:53:20.885Z,97525.75
2023-04-26T04:56:08.824Z,97526.84
2023-04-26T04:58:56.230Z,97536.53
2023-04-26T05:01:43.268Z,97536.91
2023-04-26T05:04:31.936Z,97541.88
2023-04-26T05:07:19.135Z,97542.59
2023-04-26T05:10:07.008Z,97551.81
2023-04-26T05:12:54.008Z,97548.16
2023-04-26T05:15:40.921Z,97555.97
2023-04-26T05:18:28.770Z,97566.38
2023-04-26T05:21:15.936Z,97556.06
2023-04-26T05:24:03.342Z,97559.38
2023-04-26T05:26:50.303Z,97566.81
2023-04-26T05:29:37.283Z,97571.78
2023-04-26T05:32:24.308Z,97569.25
2023-04-26T05:35:11.309Z,97568.97
2023-04-26T05:37:58.291Z,97566.59
2023-04-26T05:40:45.420Z,97573.88
2023-04-26T05:43:32.376Z,97581.00
2023-04-26T05:46:19.371Z,97588.84
2023-04-26T05:49:06.555Z,97586.50
2023-04-26T05:51:53.713Z,97587.78
2023-04-26T05:54:40.768Z,97586.28
2023-04-26T05:57:27.842Z,97593.19
2023-04-26T06:00:15.633Z,97594.09
2023-04-26T06:03:02.928Z,97597.91
2023-04-26T06:05:49.967Z,97590.88
2023-04-26T06:08:37.319Z,97592.88
2023-04-26T06:11:24.294Z,97592.75
2023-04-26T06:14:23.192Z,97591.84
2023-04-26T06:17:17.184Z,97600.44
2023-04-26T06:20:07.953Z,97606.94
2023-04-26T06:22:54.896Z,97601.72
2023-04-26T06:25:44.873Z,97603.22
2023-04-26T06:28:32.202Z,97605.81
2023-04-26T06:31:19.966Z,97613.25
2023-04-26T06:34:07.947Z,97611.09
2023-04-26T06:36:55.418Z,97620.69
2023-04-26T06:39:42.338Z,97624.84
2023-04-26T06:42:29.309Z,97612.53
2023-04-26T06:45:17.598Z,97622.34
2023-04-26T06:48:05.283Z,97620.84
2023-04-26T06:50:52.294Z,97615.06
2023-04-26T06:53:39.243Z,97625.59
2023-04-26T06:56:26.223Z,97627.81
2023-04-26T06:59:13.203Z,97622.88
2023-04-26T07:02:01.021Z,97626.94
2023-04-26T07:04:48.228Z,97623.63
2023-04-26T07:07:35.768Z,97626.91
2023-04-26T07:10:23.288Z,97629.53
2023-04-26T07:13:10.243Z,97626.81
2023-04-26T07:15:57.249Z,97631.00
2023-04-26T07:18:44.211Z,97636.13
2023-04-26T07:21:31.216Z,97631.75
2023-04-26T07:24:18.173Z,97627.44
2023-04-26T07:27:05.114Z,97638.34
2023-04-26T07:29:56.120Z,97631.47
2023-04-26T07:32:43.185Z,97640.28
2023-04-26T07:35:30.206Z,97641.88
2023-04-26T07:38:19.623Z,97644.88
2023-04-26T07:41:06.563Z,97635.25
2023-04-26T07:43:53.824Z,97636.13
2023-04-26T07:46:40.977Z,97637.31
2023-04-26T07:49:27.987Z,97632.88
2023-04-26T07:52:14.925Z,97627.09
2023-04-26T07:55:01.875Z,97639.78
2023-04-26T07:57:48.899Z,97630.03
2023-04-26T08:00:38.762Z,97629.47
2023-04-26T08:03:27.721Z,97642.38
2023-04-26T08:06:15.037Z,97641.44
2023-04-26T08:09:01.968Z,97637.28
2023-04-26T08:11:48.897Z,97643.59
2023-04-26T08:14:35.839Z,97644.13
2023-04-26T08:17:22.800Z,97642.84
2023-04-26T08:20:10.286Z,97641.75
2023-04-26T08:22:57.355Z,97641.19
2023-04-26T08:25:45.505Z,97636.00
2023-04-26T08:28:35.788Z,97644.53
2023-04-26T08:31:23.051Z,97648.75
2023-04-26T08:34:11.403Z,97655.81
2023-04-26T08:36:58.318Z,97652.72
2023-04-26T08:39:45.363Z,97650.38
2023-04-26T08:42:33.683Z,97649.28
2023-04-26T08:45:21.711Z,97659.44
2023-04-26T08:48:13.422Z,97662.16
2023-04-26T08:51:02.037Z,97664.72
2023-04-26T08:53:53.111Z,97659.44
2023-04-26T08:56:43.257Z,97650.91
2023-04-26T08:59:31.250Z,97658.72
2023-04-26T09:02:22.758Z,97660.88
2023-04-26T09:05:11.033Z,97659.81
2023-04-26T09:08:02.077Z,97668.34
2023-04-26T09:10:49.085Z,97657.28
2023-04-26T09:13:36.031Z,97658.16
2023-04-26T09:16:38.353Z,97653.81
2023-04-26T09:19:39.384Z,97648.19
2023-04-26T09:22:32.978Z,97654.91
2023-04-26T09:25:29.329Z,97654.72
2023-04-26T09:28:22.372Z,97656.00
2023-04-26T09:31:09.579Z,97646.19
2023-04-26T09:34:02.854Z,97647.09
2023-04-26T09:36:57.151Z,97641.66
2023-04-26T09:39:44.353Z,97650.03
2023-04-26T09:42:35.738Z,97632.03
2023-04-26T09:45:22.703Z,97640.56
2023-04-26T09:48:42.110Z,97637.13
2023-04-26T09:51:29.032Z,97644.38
2023-04-26T09:54:15.986Z,97639.47
2023-04-26T09:57:03.130Z,97628.06
2023-04-26T09:59:55.031Z,97634.25
2023-04-26T10:02:43.184Z,97628.19
2023-04-26T10:05:33.946Z,97626.19
2023-04-26T10:08:21.130Z,97627.06
2023-04-26T10:11:09.801Z,97636.53
2023-04-26T10:13:56.906Z,97630.19
2023-04-26T10:16:45.631Z,97636.75
2023-04-26T10:19:35.971Z,97632.41
2023-04-26T10:22:37.419Z,97630.38
2023-04-26T10:25:35.065Z,97627.63
2023-04-26T10:29:01.403Z,97629.06
2023-04-26T10:32:22.054Z,97626.69
2023-04-26T10:35:13.886Z,97632.97
2023-04-26T10:38:10.447Z,97625.44
2023-04-26T10:41:33.790Z,97627.56
2023-04-26T10:44:45.443Z,97620.94
2023-04-26T10:47:36.066Z,97613.53
2023-04-26T10:50:23.081Z,97619.69
2023-04-26T10:53:10.206Z,97612.66
2023-04-26T10:55:57.319Z,97620.78
2023-04-26T10:58:46.702Z,97614.88
2023-04-26T11:01:33.878Z,97618.97
2023-04-26T11:04:21.395Z,97604.50
2023-04-26T11:07:08.393Z,97605.28
2023-04-26T11:09:55.459Z,97599.03
2023-04-26T11:12:42.600Z,97601.19
2023-04-26T11:15:33.081Z,97605.50
2023-04-26T11:18:21.281Z,97594.00
2023-04-26T11:21:09.201Z,97589.41
2023-04-26T11:23:56.284Z,97595.72
2023-04-26T11:26:51.400Z,97592.81
2023-04-26T11:29:38.728Z,97586.78
2023-04-26T11:32:26.820Z,97595.19
2023-04-26T11:35:15.548Z,97596.63
2023-04-26T11:38:05.548Z,97590.16
2023-04-26T11:40:58.530Z,97593.66
2023-04-26T11:43:45.556Z,97602.34
2023-04-26T11:46:32.570Z,97590.38
2023-04-26T11:49:20.280Z,97598.06
2023-04-26T11:52:08.839Z,97598.50
2023-04-26T11:55:04.579Z,97594.66
2023-04-26T11:57:51.668Z,97597.06
2023-04-26T12:00:59.173Z,97599.00
2023-04-26T12:03:50.600Z,97591.63
2023-04-26T12:06:46.359Z,97600.09
2023-04-26T12:09:33.319Z,97601.91
2023-04-26T12:12:23.607Z,97601.41
2023-04-26T12:15:13.845Z,97589.63
2023-04-26T12:18:10.511Z,97591.88
2023-04-26T12:21:01.884Z,97588.91
2023-04-26T12:23:49.181Z,97586.72
2023-04-26T12:26:45.343Z,97598.44
2023-04-26T12:29:33.040Z,97591.94
2023-04-26T12:32:22.442Z,97591.75
2023-04-26T12:35:09.789Z,97593.28
2023-04-26T12:37:57.263Z,97582.91
2023-04-26T12:40:47.348Z,97591.56
2023-04-26T12:43:34.326Z,97585.78
2023-04-26T12:46:21.621Z,97582.88
2023-04-26T12:49:08.594Z,97576.72
2023-04-26T12:51:55.607Z,97578.97
2023-04-26T12:54:42.562Z,97581.47
2023-04-26T12:57:29.546Z,97571.47
2023-04-26T13:00:17.968Z,97584.72
2023-04-26T13:03:05.052Z,97580.84
2023-04-26T13:05:52.435Z,97579.59
2023-04-26T13:08:39.488Z,97587.84
2023-04-26T13:11:26.451Z,97590.53
2023-04-26T13:14:13.473Z,97591.97
2023-04-26T13:17:00.527Z,97593.13
2023-04-26T13:19:47.502Z,97591.97
2023-04-26T13:22:34.850Z,97592.25
2023-04-26T13:25:22.660Z,97591.06
2023-04-26T13:28:09.612Z,97586.25
2023-04-26T13:30:56.674Z,97582.31
2023-04-26T13:33:43.733Z,97575.88
2023-04-26T13:36:30.702Z,97575.84
2023-04-26T13:39:17.693Z,97569.13
2023-04-26T13:42:05.740Z,97567.97
2023-04-26T13:44:52.778Z,97573.03
2023-04-26T13:47:39.820Z,97569.19
2023-04-26T13:50:27.006Z,97563.69
2023-04-26T13:53:13.908Z,97560.47
2023-04-26T13:56:00.844Z,97564.34
2023-04-26T13:58:48.737Z,97563.13
2023-04-26T14:01:40.425Z,97564.84
2023-04-26T14:04:27.788Z,97569.09
2023-04-26T14:07:14.903Z,97568.78
2023-04-26T14:10:01.907Z,97569.59
2023-04-26T14:12:48.822Z,97571.69
2023-04-26T14:15:36.239Z,97576.84
2023-04-26T14:18:23.218Z,97566.22
2023-04-26T14:21:10.254Z,97575.06
2023-04-26T14:23:57.838Z,97567.59
2023-04-26T14:26:44.796Z,97572.41
2023-04-26T14:29:31.695Z,97565.56
2023-04-26T14:32:18.659Z,97573.06
2023-04-26T14:35:06.273Z,97558.66
2023-04-26T14:37:53.185Z,97562.34
2023-04-26T14:40:40.589Z,97557.19
2023-04-26T14:43:27.624Z,97560.34
2023-04-26T14:46:15.031Z,97564.03
2023-04-26T14:49:01.997Z,97555.75
2023-04-26T14:51:51.263Z,97552.59
2023-04-26T14:54:40.044Z,97563.00
2023-04-26T14:57:27.071Z,97553.31
2023-04-26T15:00:16.857Z,97546.25
2023-04-26T15:03:04.559Z,97547.56
2023-04-26T15:05:51.751Z,97553.84
2023-04-26T15:08:38.811Z,97543.13
2023-04-26T15:11:25.937Z,97537.75
2023-04-26T15:14:13.066Z,97544.31
2023-04-26T15:17:00.414Z,97528.88
2023-04-26T15:19:48.344Z,97543.06
2023-04-26T15:22:37.998Z,97547.09
2023-04-26T15:25:25.792Z,97539.56
2023-04-26T15:28:12.800Z,97545.06
2023-04-26T15:31:09.507Z,97548.03
2023-04-26T15:33:56.879Z,97542.81
2023-04-26T15:36:43.776Z,97546.75
2023-04-26T15:39:30.736Z,97550.38
2023-04-26T15:42:17.688Z,97550.13
2023-04-26T15:45:05.227Z,97544.34
2023-04-26T15:47:52.099Z,97541.78
2023-04-26T15:50:39.065Z,97539.19
2023-04-26T15:53:26.070Z,97537.94
2023-04-26T15:56:19.334Z,97535.50
2023-04-26T15:59:06.225Z,97536.06
2023-04-26T16:01:53.309Z,97531.31
2023-04-26T16:04:40.641Z,97521.03
2023-04-26T16:07:27.900Z,97523.69
2023-04-26T16:10:14.818Z,97524.81
2023-04-26T16:13:01.769Z,97522.47
2023-04-26T16:15:48.798Z,97531.72
2023-04-26T16:18:35.893Z,97521.09
2023-04-26T16:21:22.883Z,97522.44
2023-04-26T16:24:11.547Z,97524.38
2023-04-26T16:26:58.717Z,97528.50
2023-04-26T16:29:47.524Z,97526.25
2023-04-26T16:32:34.607Z,97520.13
2023-04-26T16:35:21.616Z,97524.41
2023-04-26T16:38:08.763Z,97524.06
2023-04-26T16:40:58.022Z,97528.44
2023-04-26T16:43:45.953Z,97529.78
2023-04-26T16:46:33.049Z,97529.53
2023-04-26T16:49:20.023Z,97520.63
2023-04-26T16:52:08.475Z,97522.78
2023-04-26T16:54:55.595Z,97519.47
2023-04-26T16:57:42.507Z,97523.41
2023-04-26T17:00:29.433Z,97521.56
2023-04-26T17:03:16.931Z,97522.38
2023-04-26T17:06:06.650Z,97528.97
2023-04-26T17:08:53.622Z,97532.38
2023-04-26T17:11:43.535Z,97537.34
2023-04-26T17:14:31.733Z,97531.94
2023-04-26T17:17:18.571Z,97542.22
2023-04-26T17:20:06.794Z,97540.81
2023-04-26T17:22:53.772Z,97552.78
2023-04-26T17:25:40.746Z,97544.41
2023-04-26T17:28:27.838Z,97551.16
2023-04-26T17:31:14.788Z,97562.34
2023-04-26T17:34:04.065Z,97559.91
2023-04-26T17:36:52.974Z,97562.81
2023-04-26T17:39:39.914Z,97563.13
2023-04-26T17:42:28.657Z,97562.75
2023-04-26T17:45:15.747Z,97566.66
2023-04-26T17:48:03.135Z,97568.50
2023-04-26T17:50:51.176Z,97575.75
2023-04-26T17:53:39.008Z,97572.84
2023-04-26T17:56:25.861Z,97568.66
2023-04-26T17:59:12.799Z,97571.94
2023-04-26T18:01:59.793Z,97574.06
2023-04-26T18:04:47.316Z,97570.81
2023-04-26T18:07:34.576Z,97579.97
2023-04-26T18:10:21.977Z,97580.34
2023-04-26T18:13:11.042Z,97581.63
2023-04-26T18:15:58.057Z,97581.47
2023-04-26T18:18:45.026Z,97592.94
2023-04-26T18:21:31.986Z,97584.81
2023-04-26T18:24:19.647Z,97591.22
2023-04-26T18:27:07.206Z,97588.50
2023-04-26T18:29:54.075Z,97590.34
2023-04-26T18:32:41.320Z,97596.34
2023-04-26T18:35:28.358Z,97594.72
2023-04-26T18:38:15.388Z,97600.91
2023-04-26T18:41:02.278Z,97597.69
2023-04-26T18:43:49.412Z,97610.22
2023-04-26T18:46:36.762Z,97598.22
2023-04-26T18:49:24.041Z,97607.69
2023-04-26T18:52:11.036Z,97603.88
2023-04-26T18:54:58.074Z,97611.84
2023-04-26T18:57:44.989Z,97615.13
2023-04-26T19:00:32.521Z,97614.78
2023-04-26T19:03:20.128Z,97625.69
2023-04-26T19:06:09.173Z,97627.31
2023-04-26T19:08:56.361Z,97634.03
2023-04-26T19:11:43.315Z,97626.78
2023-04-26T19:14:30.505Z,97634.22
2023-04-26T19:17:17.463Z,97635.13
2023-04-26T19:20:10.236Z,97623.31
2023-04-26T19:22:57.247Z,97626.19
2023-04-26T19:25:44.144Z,97627.69
2023-04-26T19:28:31.448Z,97637.13
2023-04-26T19:31:18.364Z,97633.50
2023-04-26T19:34:05.259Z,97632.22
2023-04-26T19:36:52.408Z,97636.75
2023-04-26T19:39:39.348Z,97642.41
2023-04-26T19:42:26.722Z,97641.50
2023-04-26T19:45:13.766Z,97643.50
2023-04-26T19:48:00.755Z,97646.75
2023-04-26T19:50:47.756Z,97649.50
2023-04-26T19:53:35.307Z,97645.69
2023-04-26T19:56:23.200Z,97650.41
2023-04-26T19:59:10.272Z,97653.69
2023-04-26T20:01:57.247Z,97652.94
2023-04-26T20:04:44.674Z,97650.22
2023-04-26T20:07:31.728Z,97651.63
2023-04-26T20:10:18.822Z,97658.94
2023-04-26T20:13:05.923Z,97660.38
2023-04-26T20:15:52.754Z,97662.41
2023-04-26T20:18:39.732Z,97649.34
2023-04-26T20:21:29.041Z,97653.31
2023-04-26T20:24:16.432Z,97656.22
2023-04-26T20:27:03.516Z,97656.56
2023-04-26T20:29:50.529Z,97647.09
2023-04-26T20:32:37.431Z,97660.94
2023-04-26T20:35:24.344Z,97653.84
2023-04-26T20:38:11.656Z,97644.56
2023-04-26T20:40:58.559Z,97641.47
2023-04-26T20:43:45.495Z,97645.81
2023-04-26T20:46:32.610Z,97647.81
2023-04-26T20:49:19.953Z,97652.50
2023-04-26T20:52:07.584Z,97657.94
2023-04-26T20:54:57.162Z,97653.41
2023-04-26T20:57:44.411Z,97651.78
2023-04-26T21:00:31.317Z,97645.25
2023-04-26T21:03:18.773Z,97658.50
2023-04-26T21:06:06.074Z,97660.88
2023-04-26T21:08:53.094Z,97662.88
2023-04-26T21:11:40.035Z,97662.13
2023-04-26T21:14:26.950Z,97659.94
2023-04-26T21:17:14.625Z,97665.41
2023-04-26T21:20:01.516Z,97664.50
2023-04-26T21:22:48.448Z,97672.13
2023-04-26T21:25:35.674Z,97673.41
2023-04-26T21:28:22.872Z,97669.41
2023-04-26T21:31:10.006Z,97673.94
2023-04-26T21:33:56.969Z,97675.19
2023-04-26T21:36:44.032Z,97677.41
2023-04-26T21:39:31.008Z,97677.75
2023-04-26T21:42:18.061Z,97685.16
2023-04-26T21:45:05.915Z,97681.56
2023-04-26T21:47:52.876Z,97682.06
2023-04-26T21:50:39.775Z,97681.91
2023-04-26T21:53:27.202Z,97687.38
2023-04-26T21:56:14.766Z,97686.06
2023-04-26T21:59:02.604Z,97682.06
2023-04-26T22:01:49.559Z,97691.34
2023-04-26T22:04:36.713Z,97691.16
2023-04-26T22:07:23.764Z,97691.69
2023-04-26T22:10:11.088Z,97695.69
2023-04-26T22:12:58.054Z,97697.53
2023-04-26T22:15:45.000Z,97699.88
2023-04-26T22:18:32.440Z,97694.63
2023-04-26T22:21:19.402Z,97704.63
2023-04-26T22:24:06.967Z,97699.88
2023-04-26T22:26:53.904Z,97705.34
2023-04-26T22:29:40.817Z,97705.34
2023-04-26T22:32:27.880Z,97707.72
2023-04-26T22:35:14.801Z,97709.69
2023-04-26T22:38:01.784Z,97721.31
2023-04-26T22:40:48.727Z,97716.22
2023-04-26T22:43:36.429Z,97723.22
2023-04-26T22:46:23.492Z,97725.91
2023-04-26T22:49:11.087Z,97728.41
2023-04-26T22:52:07.738Z,97725.31
2023-04-26T22:54:59.917Z,97736.59
2023-04-26T22:57:47.065Z,97734.06
2023-04-26T23:00:33.964Z,97736.09
2023-04-26T23:03:21.121Z,97732.47
2023-04-26T23:06:08.481Z,97737.75
2023-04-26T23:08:55.664Z,97744.41
2023-04-26T23:11:42.770Z,97744.41
2023-04-26T23:14:30.377Z,97744.63
2023-04-26T23:17:20.362Z,97738.97
2023-04-26T23:20:12.281Z,97745.66
2023-04-26T23:22:59.389Z,97744.69
2023-04-26T23:25:46.819Z,97747.22
2023-04-26T23:28:33.763Z,97753.91
2023-04-26T23:31:20.952Z,97742.13
2023-04-26T23:34:08.359Z,97753.69
2023-04-26T23:36:55.277Z,97750.25
2023-04-26T23:39:42.916Z,97747.81
2023-04-26T23:42:29.821Z,97736.31
2023-04-26T23:45:16.966Z,97751.31
2023-04-26T23:48:04.176Z,97747.84
2023-04-26T23:50:51.162Z,97744.94
2023-04-26T23:53:39.674Z,97747.97
2023-04-26T23:56:26.708Z,97737.25
2023-04-26T23:59:14.274Z,97735.28
